Terminal Aerodrome Forecast
Issued by NWS

Home | Current Version | Previous Version | Text Only | Print | Product List | Glossary On
Versions: 1 2 3 4 5 6 7 8 9 10 11 12 13 14
822
FTPA31 PHFO 022338
TAFHJH
TAF
PHJH 022338Z 0300/0324 31008KT P6SM VCSH SCT030 BKN060 BKN200
     FM030500 09007KT P6SM VCSH SCT025 BKN035
     FM032100 28008KT P6SM VCSH SCT025 BKN035=

USA.gov is the U.S. government's official web portal to all federal, state and local government web resources and services.